createdAt,value
2022-10-04T00:03:32.116Z,15.60
2022-10-04T00:09:16.388Z,15.60
2022-10-04T00:14:34.760Z,15.60
2022-10-04T00:20:06.879Z,15.60
2022-10-04T00:31:34.591Z,15.50
2022-10-04T00:37:06.537Z,15.50
2022-10-04T00:42:28.939Z,15.50
2022-10-04T00:47:51.266Z,15.50
2022-10-04T00:58:47.843Z,15.50
2022-10-04T01:04:48.845Z,15.50
2022-10-04T01:10:42.872Z,15.50
2022-10-04T01:16:13.814Z,15.50
2022-10-04T01:21:51.660Z,15.40
2022-10-04T01:26:58.270Z,15.40
2022-10-04T01:32:34.127Z,15.40
2022-10-04T01:38:16.090Z,15.50
2022-10-04T01:43:31.586Z,15.50
2022-10-04T01:49:00.486Z,15.50
2022-10-04T01:54:14.937Z,15.40
2022-10-04T02:00:09.317Z,15.40
2022-10-04T02:05:53.198Z,15.40
2022-10-04T02:10:57.806Z,15.40
2022-10-04T02:22:27.155Z,15.20
2022-10-04T02:27:49.260Z,15.20
2022-10-04T02:33:04.553Z,15.20
2022-10-04T02:38:37.955Z,15.10
2022-10-04T02:44:13.726Z,15.10
2022-10-04T02:50:05.535Z,14.90
2022-10-04T03:01:49.945Z,14.90
2022-10-04T03:07:10.541Z,14.90
2022-10-04T03:38:16.333Z,14.70
2022-10-04T03:50:14.246Z,14.40
2022-10-04T03:56:31.071Z,14.40
2022-10-04T04:03:03.368Z,14.30
2022-10-04T04:08:55.146Z,14.20
2022-10-04T04:22:04.898Z,14.20
2022-10-04T04:27:18.816Z,14.30
2022-10-04T04:45:13.824Z,14.40
2022-10-04T04:50:39.925Z,14.30
2022-10-04T05:34:01.051Z,14.10
2022-10-04T05:39:25.494Z,14.10
2022-10-04T05:56:56.683Z,14.20
2022-10-04T06:09:36.370Z,14.20
2022-10-04T06:15:23.064Z,14.20
2022-10-04T06:26:45.449Z,14.00
2022-10-04T06:40:13.840Z,13.80
2022-10-04T06:45:58.973Z,13.80
2022-10-04T06:51:40.329Z,13.80
2022-10-04T07:03:07.947Z,14.00
2022-10-04T07:42:14.820Z,14.40
2022-10-04T07:48:00.333Z,14.80
2022-10-04T07:53:48.907Z,14.80
2022-10-04T07:59:26.106Z,15.00
2022-10-04T08:04:53.222Z,15.10
2022-10-04T08:10:28.639Z,15.20
2022-10-04T08:16:02.701Z,15.40
2022-10-04T08:21:37.807Z,15.60
2022-10-04T08:27:04.882Z,15.70
2022-10-04T08:32:25.332Z,16.10
2022-10-04T08:38:11.429Z,16.10
2022-10-04T08:50:18.183Z,16.50
2022-10-04T09:03:37.060Z,16.80
2022-10-04T09:10:30.637Z,16.80
2022-10-04T09:16:19.927Z,16.80
2022-10-04T09:21:55.621Z,17.10
2022-10-04T09:27:56.352Z,17.20
2022-10-04T09:33:18.699Z,17.50
2022-10-04T09:38:29.118Z,17.70
2022-10-04T09:43:51.190Z,18.00
2022-10-04T09:49:13.937Z,18.30
2022-10-04T09:54:46.094Z,18.20
2022-10-04T10:00:07.360Z,18.00
2022-10-04T10:05:36.520Z,18.30
2022-10-04T10:11:23.038Z,18.40
2022-10-04T10:16:49.162Z,18.40
2022-10-04T10:22:06.474Z,18.50
2022-10-04T10:27:29.935Z,18.70
2022-10-04T10:32:57.199Z,19.00
2022-10-04T10:38:26.669Z,19.40
2022-10-04T10:43:41.912Z,19.30
2022-10-04T10:49:11.262Z,19.20
2022-10-04T10:54:42.095Z,19.00
2022-10-04T10:59:50.270Z,19.00
2022-10-04T11:05:04.683Z,18.90
2022-10-04T11:10:29.387Z,18.90
2022-10-04T11:16:22.599Z,19.10
2022-10-04T11:22:07.452Z,19.30
2022-10-04T11:27:34.241Z,19.20
2022-10-04T11:32:57.776Z,19.40
2022-10-04T11:38:27.771Z,19.50
2022-10-04T11:43:55.190Z,19.60
2022-10-04T11:49:37.441Z,19.60
2022-10-04T11:55:23.538Z,19.70
2022-10-04T12:00:43.310Z,19.80
2022-10-04T12:05:51.326Z,19.80
2022-10-04T12:11:23.947Z,19.60
2022-10-04T12:16:48.763Z,19.40
2022-10-04T12:22:28.467Z,19.40
2022-10-04T12:28:11.758Z,19.70
2022-10-04T12:33:37.217Z,19.60
2022-10-04T12:39:04.304Z,19.40
2022-10-04T12:44:25.065Z,20.00
2022-10-04T12:50:03.964Z,20.20
2022-10-04T12:55:48.961Z,20.30
2022-10-04T13:01:02.652Z,20.40
2022-10-04T13:06:46.939Z,20.40
2022-10-04T13:11:56.450Z,19.90
2022-10-04T13:17:35.408Z,19.50
2022-10-04T13:23:07.347Z,19.40
2022-10-04T13:28:33.276Z,19.40
2022-10-04T13:34:07.740Z,19.50
2022-10-04T13:39:33.118Z,19.50
2022-10-04T13:45:03.957Z,19.40
2022-10-04T13:50:17.789Z,19.40
2022-10-04T13:56:32.093Z,19.30
2022-10-04T14:02:01.177Z,19.20
2022-10-04T14:07:31.626Z,19.00
2022-10-04T14:12:52.469Z,18.80
2022-10-04T14:18:03.685Z,18.60
2022-10-04T14:23:21.382Z,18.60
2022-10-04T14:28:25.171Z,18.60
2022-10-04T14:33:33.600Z,18.80
2022-10-04T14:38:59.292Z,19.10
2022-10-04T14:44:20.985Z,19.40
2022-10-04T14:50:08.302Z,19.30
2022-10-04T14:55:50.100Z,19.10
2022-10-04T15:01:07.571Z,19.20
2022-10-04T15:06:22.276Z,19.20
2022-10-04T15:11:57.494Z,19.20
2022-10-04T15:17:38.928Z,19.30
2022-10-04T15:23:08.120Z,19.30
2022-10-04T15:28:47.269Z,19.20
2022-10-04T15:34:08.257Z,19.20
2022-10-04T15:39:41.975Z,19.20
2022-10-04T15:44:59.309Z,19.20
2022-10-04T15:50:26.786Z,19.20
2022-10-04T15:55:28.910Z,19.00
2022-10-04T16:01:02.463Z,18.90
2022-10-04T16:06:22.259Z,18.80
2022-10-04T16:11:36.657Z,18.90
2022-10-04T16:17:17.673Z,18.90
2022-10-04T16:22:31.825Z,18.70
2022-10-04T16:27:37.019Z,18.60
2022-10-04T16:33:08.142Z,18.60
2022-10-04T16:38:17.356Z,18.40
2022-10-04T16:43:28.643Z,18.40
2022-10-04T16:48:50.481Z,18.40
2022-10-04T16:54:03.958Z,18.40
2022-10-04T16:59:14.239Z,18.30
2022-10-04T17:05:03.802Z,18.20
2022-10-04T17:10:39.470Z,18.20
2022-10-04T17:16:04.382Z,18.10
2022-10-04T17:21:50.842Z,18.00
2022-10-04T17:27:26.883Z,17.90
2022-10-04T17:32:48.802Z,17.80
2022-10-04T17:38:21.999Z,17.80
2022-10-04T17:44:14.476Z,17.60
2022-10-04T17:49:43.135Z,17.60
2022-10-04T17:55:13.235Z,17.40
2022-10-04T18:00:29.348Z,17.40
2022-10-04T18:05:52.520Z,17.30
2022-10-04T18:11:06.613Z,17.30
2022-10-04T18:16:18.603Z,17.20
2022-10-04T18:21:31.391Z,17.20
2022-10-04T18:26:36.530Z,17.10
2022-10-04T18:31:44.354Z,17.10
2022-10-04T18:37:05.854Z,17.10
2022-10-04T18:42:26.322Z,17.10
2022-10-04T18:47:39.819Z,17.00
2022-10-04T18:53:17.374Z,17.00
2022-10-04T18:59:12.346Z,17.00
2022-10-04T19:04:39.972Z,17.00
2022-10-04T19:10:12.568Z,16.90
2022-10-04T19:16:04.325Z,16.90
2022-10-04T19:21:14.737Z,16.90
2022-10-04T19:26:38.949Z,16.90
2022-10-04T19:32:16.009Z,16.90
2022-10-04T19:37:40.850Z,16.90
2022-10-04T19:43:07.509Z,16.90
2022-10-04T19:48:28.999Z,16.90
2022-10-04T19:53:45.757Z,16.90
2022-10-04T20:04:36.375Z,16.80
2022-10-04T20:09:49.279Z,16.80
2022-10-04T20:14:55.162Z,16.80
2022-10-04T20:20:02.648Z,16.70
2022-10-04T20:25:38.482Z,16.70
2022-10-04T20:31:03.670Z,16.60
2022-10-04T20:37:00.695Z,16.50
2022-10-04T20:42:23.247Z,16.40
2022-10-04T20:47:50.409Z,16.30
2022-10-04T20:52:58.614Z,16.30
2022-10-04T20:58:28.496Z,16.30
2022-10-04T21:03:32.701Z,16.30
2022-10-04T21:08:39.077Z,16.30
2022-10-04T21:13:42.838Z,16.30
2022-10-04T21:18:46.379Z,16.30
2022-10-04T21:29:13.090Z,16.40
2022-10-04T21:34:41.045Z,16.40
2022-10-04T21:39:47.043Z,16.40
2022-10-04T21:44:50.070Z,16.50
2022-10-04T21:49:57.494Z,16.50
2022-10-04T22:00:16.866Z,16.50
2022-10-04T22:05:21.492Z,16.50
2022-10-04T22:10:23.924Z,16.50
2022-10-04T22:15:28.061Z,16.60
2022-10-04T22:20:36.749Z,16.60
2022-10-04T22:25:40.691Z,16.60
2022-10-04T22:30:45.554Z,16.70
2022-10-04T22:35:49.254Z,16.70
2022-10-04T22:40:52.738Z,16.80
2022-10-04T22:46:00.672Z,16.80
2022-10-04T22:51:16.761Z,16.80
2022-10-04T22:56:20.272Z,16.80
2022-10-04T23:01:22.569Z,16.80
2022-10-04T23:06:26.374Z,16.80
2022-10-04T23:11:37.138Z,16.80
2022-10-04T23:16:39.608Z,16.80
2022-10-04T23:21:46.182Z,16.80
2022-10-04T23:26:58.068Z,16.80
2022-10-04T23:32:12.237Z,16.70
2022-10-04T23:37:34.371Z,16.80
2022-10-04T23:42:38.807Z,16.70
2022-10-04T23:48:00.229Z,16.70
2022-10-04T23:53:34.299Z,16.70
2022-10-04T23:58:46.810Z,16.70
